Lepel, Belarus
Current Conditions -  °F | °C
As of 3:00 PM on Monday 24 Nov 2014 (Local Time) from UMII Reporting Station
Clear Clear  
Wind Chill: 21°   Ceiling: Unl
Heat Index: 30°   Visibility: 6mi
Dew Point: 18°   Wind: 11mph
Humidity: 60%   Direction: 150°SSE
Pressure: 30.5"   Gusts: 18mph
Location:  54.89°N, 28.7°E
Report Text: UMII 241300Z 15005G08MPS CAVOK M01/M08 Q1033 R05/CLRD// NOSIG
Loading
Personal Weather Stations






























Interactive Weather Map New forecast layout! Learn more

10-Day Weather Forecast

Advertisements
Track Severe Weather on mobile